D/T METAR WX W/DIR W/SPE G/SPE TEMP DEWP
20/06/19 15:50 EGJA 201450Z 25012KT 9999 FEW011 16/13 Q1017 WSW (250°) 13.8mph 16°C 13°C
20/06/19 15:20 EGJA 201420Z 24010KT 220V280 9999 FEW011 16/13 Q1017 WSW (240°) 11.5mph 16°C 13°C
20/06/19 14:50 EGJA 201350Z 24011KT 9999 FEW010 16/13 Q1017 WSW (240°) 12.7mph 16°C 13°C
20/06/19 13:50 EGJA 201250Z 23012KT 9999 FEW018 16/13 Q1016 SW (230°) 13.8mph 16°C 13°C
20/06/19 13:20 EGJA 201220Z 25010KT 220V280 9999 FEW018 16/13 Q1016 WSW (250°) 11.5mph 16°C 13°C
20/06/19 12:50 EGJA 201150Z 26011KT 9999 FEW018 16/13 Q1016 W (260°) 12.7mph 16°C 13°C
20/06/19 12:20 EGJA 201120Z 26012KT 9999 FEW018 15/13 Q1016 W (260°) 13.8mph 15°C 13°C
20/06/19 11:50 EGJA 201050Z 26012KT 9999 FEW018 15/13 Q1016 W (260°) 13.8mph 15°C 13°C
20/06/19 10:50 EGJA 200950Z 25012KT 9999 FEW008 15/13 Q1016 WSW (250°) 13.8mph 15°C 13°C
20/06/19 10:20 EGJA 200920Z 26013KT 9999 FEW008 15/13 Q1015 W (260°) 15.0mph 15°C 13°C
20/06/19 09:20 EGJA 200820Z 26011KT 9999 FEW010 14/12 Q1015 W (260°) 12.7mph 14°C 12°C
20/06/19 08:50 EGJA 200750Z 26012KT 9999 FEW010 14/12 Q1015 W (260°) 13.8mph 14°C 12°C
20/06/19 08:20 EGJA 200720Z 26011KT 9999 FEW010 14/12 Q1015 W (260°) 12.7mph 14°C 12°C
20/06/19 07:20 EGJA 200620Z 27009KT 9999 FEW010 13/12 Q1014 W (270°) 10.4mph 13°C 12°C
20/06/19 06:50 EGJA 200550Z 26009KT 9999 FEW010 13/12 Q1014 W (260°) 10.4mph 13°C 12°C
19/06/19 18:20 EGJA 191720Z 26009KT 9999 BKN018 14/13 Q1010 W (260°) 10.4mph 14°C 13°C
19/06/19 17:50 EGJA 191650Z 26009KT 9999 SCT002 BKN003 14/13 Q1010 W (260°) 10.4mph 14°C 13°C
19/06/19 17:20 EGJA 191620Z 26009KT 4000 R26/0800 BR BKN002 14/13 Q1010 BR W (260°) 10.4mph 14°C 13°C
19/06/19 16:50 EGJA 191550Z 26009KT 0500 R26/0375 FG BKN000 14/14 Q1010 FG W (260°) 10.4mph 14°C 14°C
19/06/19 16:20 EGJA 191520Z 23007KT 2000 BR VCFG BKN002 14/13 Q1010 BR VCFG SW (230°) 8.1mph 14°C 13°C
19/06/19 15:50 EGJA 191450Z 26007KT 3000 BR FEW002 BKN004 15/14 Q1010 BR W (260°) 8.1mph 15°C 14°C
19/06/19 15:20 EGJA 191420Z 27007KT 3000 BR FEW002 BKN005 15/14 Q1010 BR W (270°) 8.1mph 15°C 14°C
19/06/19 14:20 EGJA 191320Z 26007KT 3000 BR FEW002 15/14 Q1010 BR W (260°) 8.1mph 15°C 14°C
19/06/19 13:50 EGJA 191250Z 28006KT 4000 BR FEW002 15/14 Q1010 BR W (280°) 6.9mph 15°C 14°C
19/06/19 13:20 EGJA 191220Z 31006KT 4000 BR FEW002 15/14 Q1010 BR NW (310°) 6.9mph 15°C 14°C
19/06/19 12:50 EGJA 191150Z 31006KT 4000 BR FEW002 15/14 Q1009 BR NW (310°) 6.9mph 15°C 14°C
19/06/19 11:50 EGJA 191050Z 32007KT 2500 BR SCT001 14/14 Q1009 BR NW (320°) 8.1mph 14°C 14°C
19/06/19 11:20 EGJA 191020Z 31007KT 2000 R26/1000 BR SCT001 14/14 Q1009 BR NW (310°) 8.1mph 14°C 14°C
19/06/19 10:50 EGJA 190950Z 31007KT 0800 R26/1000 FG BKN001 14/14 Q1009 FG NW (310°) 8.1mph 14°C 14°C
19/06/19 10:20 EGJA 190920Z 29008KT 0400 R26/0600 FG SCT000 BKN005 14/13 Q1009 FG WNW (290°) 9.2mph 14°C 13°C
19/06/19 09:50 EGJA 190850Z 29004KT 3500 -RADZ BR SCT000 SCT001 14/14 Q1008 -RA -DZ BR WNW (290°) 4.6mph 14°C 14°C
19/06/19 09:20 EGJA 190820Z VRB02KT 3500 BR FEW001 SCT002 15/14 Q1008 BR N (0°) 2.3mph 15°C 14°C
19/06/19 08:50 EGJA 190750Z VRB02KT 3500 BR SCT003 BKN015 15/14 Q1008 BR N (0°) 2.3mph 15°C 14°C
19/06/19 07:50 EGJA 190650Z 04005KT 4500 BR SCT002 14/14 Q1008 BR NE (40°) 5.8mph 14°C 14°C
19/06/19 07:20 EGJA 190620Z 03005KT 5000 BR FEW005 14/14 Q1008 BR NNE (30°) 5.8mph 14°C 14°C
19/06/19 06:50 EGJA 190550Z VRB03KT 5000 BR FEW005 14/14 Q1008 BR N (0°) 3.5mph 14°C 14°C
18/06/19 19:20 EGJA 181820Z 05013KT 9999 FEW040 14/12 Q1010 NE (50°) 15.0mph 14°C 12°C
18/06/19 18:50 EGJA 181750Z 06013KT 9999 FEW040 14/12 Q1010 ENE (60°) 15.0mph 14°C 12°C
18/06/19 18:20 EGJA 181720Z 05013KT 9999 FEW038 14/12 Q1010 NE (50°) 15.0mph 14°C 12°C
18/06/19 17:50 EGJA 181650Z 05013KT 9999 FEW038 13/12 Q1010 NE (50°) 15.0mph 13°C 12°C
18/06/19 17:20 EGJA 181620Z 06013KT 9999 FEW012 13/12 Q1010 ENE (60°) 15.0mph 13°C 12°C
18/06/19 16:50 EGJA 181550Z 05015KT 9999 VCSH FEW035 13/12 Q1011 VCSH NE (50°) 17.3mph 13°C 12°C
18/06/19 16:20 EGJA 181520Z 05016KT 9999 7000NE VCSH NSC 13/12 Q1011 VCSH NE (50°) 18.4mph 13°C 12°C
18/06/19 15:50 EGJA 181450Z 05014KT 9999 7000SW VCSH NSC 13/12 Q1011 VCSH NE (50°) 16.1mph 13°C 12°C
18/06/19 15:20 EGJA 181420Z 05016KT CAVOK 14/12 Q1011 NE (50°) 18.4mph 14°C 12°C
18/06/19 14:50 EGJA 181350Z 06016KT 9999 FEW020 15/13 Q1011 ENE (60°) 18.4mph 15°C 13°C
18/06/19 14:20 EGJA 181320Z 06017KT 9999 FEW019 14/12 Q1011 ENE (60°) 19.6mph 14°C 12°C
18/06/19 13:20 EGJA 181220Z 10004KT 070V130 9999 -SHRA FEW018 13/12 Q1013 -SHRA E (100°) 4.6mph 13°C 12°C